createdAt,value
2018-09-23T00:02:53.409Z,12.00
2018-09-23T00:07:48.044Z,12.00
2018-09-23T00:12:42.793Z,12.00
2018-09-23T00:17:37.389Z,12.10
2018-09-23T00:22:31.926Z,12.00
2018-09-23T00:27:26.546Z,12.10
2018-09-23T00:32:24.493Z,12.10
2018-09-23T00:37:18.992Z,12.10
2018-09-23T00:42:13.614Z,12.10
2018-09-23T00:47:15.598Z,12.10
2018-09-23T00:52:10.126Z,12.10
2018-09-23T00:57:04.762Z,12.20
2018-09-23T01:02:00.601Z,12.20
2018-09-23T01:06:55.846Z,12.20
2018-09-23T01:11:50.717Z,12.20
2018-09-23T01:16:47.024Z,12.20
2018-09-23T01:21:41.480Z,12.30
2018-09-23T01:26:35.926Z,12.30
2018-09-23T01:31:30.493Z,12.30
2018-09-23T01:36:24.958Z,12.30
2018-09-23T01:41:19.821Z,12.20
2018-09-23T01:46:14.672Z,12.20
2018-09-23T01:51:09.146Z,12.20
2018-09-23T01:56:03.615Z,12.20
2018-09-23T02:00:58.089Z,12.20
2018-09-23T02:05:52.540Z,12.20
2018-09-23T02:10:47.307Z,12.20
2018-09-23T02:15:41.801Z,12.30
2018-09-23T02:20:36.322Z,12.20
2018-09-23T02:25:31.011Z,12.20
2018-09-23T02:30:25.494Z,12.10
2018-09-23T02:35:21.650Z,12.20
2018-09-23T02:40:16.428Z,12.10
2018-09-23T02:45:11.075Z,12.10
2018-09-23T02:50:05.634Z,12.20
2018-09-23T02:55:00.123Z,12.20
2018-09-23T02:59:54.584Z,12.10
2018-09-23T03:04:49.089Z,12.20
2018-09-23T03:09:43.576Z,12.10
2018-09-23T03:14:38.312Z,12.00
2018-09-23T03:19:32.802Z,12.00
2018-09-23T03:24:27.279Z,12.00
2018-09-23T03:29:21.708Z,12.00
2018-09-23T03:34:16.164Z,12.10
2018-09-23T03:39:10.608Z,12.00
2018-09-23T03:44:05.073Z,12.10
2018-09-23T03:48:59.648Z,12.10
2018-09-23T03:53:54.282Z,12.00
2018-09-23T03:58:48.725Z,12.00
2018-09-23T04:03:43.272Z,12.00
2018-09-23T04:08:37.894Z,12.00
2018-09-23T04:13:32.399Z,12.00
2018-09-23T04:18:26.872Z,12.00
2018-09-23T04:23:21.337Z,12.00
2018-09-23T04:28:15.855Z,11.90
2018-09-23T04:33:10.288Z,11.90
2018-09-23T04:38:04.742Z,12.00
2018-09-23T04:42:59.198Z,12.00
2018-09-23T04:47:53.632Z,12.00
2018-09-23T04:52:48.099Z,12.00
2018-09-23T04:57:42.944Z,12.10
2018-09-23T05:02:37.428Z,12.00
2018-09-23T05:07:32.185Z,12.00
2018-09-23T05:12:26.680Z,12.10
2018-09-23T05:17:21.153Z,12.10
2018-09-23T05:22:15.726Z,12.10
2018-09-23T05:27:10.405Z,12.10
2018-09-23T05:32:05.016Z,12.10
2018-09-23T05:36:59.852Z,12.10
2018-09-23T05:41:54.392Z,12.20
2018-09-23T05:46:48.857Z,12.20
2018-09-23T05:51:43.453Z,12.20
2018-09-23T05:56:38.089Z,12.30
2018-09-23T06:01:32.785Z,12.30
2018-09-23T06:06:27.566Z,12.40
2018-09-23T06:11:22.023Z,12.40
2018-09-23T06:16:16.490Z,12.40
2018-09-23T06:21:11.377Z,12.40
2018-09-23T06:26:06.260Z,12.50
2018-09-23T06:31:00.778Z,12.50
2018-09-23T06:35:55.252Z,12.60
2018-09-23T06:40:49.740Z,12.60
2018-09-23T06:45:44.374Z,12.70
2018-09-23T06:50:38.968Z,12.70
2018-09-23T06:55:33.458Z,12.90
2018-09-23T07:00:28.124Z,13.00
2018-09-23T07:05:22.562Z,13.00
2018-09-23T07:10:17.521Z,13.20
2018-09-23T07:15:12.368Z,13.30
2018-09-23T07:20:07.337Z,13.40
2018-09-23T07:25:02.069Z,13.40
2018-09-23T07:29:56.742Z,13.40
2018-09-23T07:34:51.823Z,13.50
2018-09-23T07:39:46.716Z,13.50
2018-09-23T07:44:41.613Z,13.60
2018-09-23T07:49:36.540Z,13.70
2018-09-23T07:54:31.120Z,13.70
2018-09-23T07:59:25.653Z,13.70
2018-09-23T08:04:20.100Z,13.70
2018-09-23T08:09:14.589Z,13.60
2018-09-23T08:14:09.591Z,13.60
2018-09-23T08:19:04.197Z,13.90
2018-09-23T08:23:59.062Z,14.10
2018-09-23T08:28:53.789Z,14.30
2018-09-23T08:33:48.298Z,14.80
2018-09-23T08:38:43.202Z,15.20
2018-09-23T08:43:37.697Z,15.50
2018-09-23T08:48:32.230Z,15.50
2018-09-23T08:53:26.954Z,15.40
2018-09-23T08:58:21.584Z,15.20
2018-09-23T09:03:16.073Z,15.40
2018-09-23T09:08:10.842Z,15.40
2018-09-23T09:13:06.153Z,15.50
2018-09-23T09:18:01.197Z,15.60
2018-09-23T09:22:57.448Z,15.80
2018-09-23T09:27:52.358Z,16.00
2018-09-23T09:32:47.546Z,16.10
2018-09-23T09:37:42.190Z,16.20
2018-09-23T09:42:36.717Z,16.10
2018-09-23T09:47:31.165Z,16.10
2018-09-23T09:52:27.953Z,16.10
2018-09-23T09:57:22.662Z,16.20
2018-09-23T10:02:17.258Z,16.30
2018-09-23T10:07:12.001Z,16.40
2018-09-23T10:12:06.898Z,16.50
2018-09-23T10:17:01.375Z,16.80
2018-09-23T10:21:56.293Z,17.20
2018-09-23T10:26:51.082Z,17.80
2018-09-23T10:31:45.631Z,17.90
2018-09-23T10:36:40.273Z,17.90
2018-09-23T10:41:34.734Z,17.80
2018-09-23T10:46:29.253Z,17.60
2018-09-23T10:51:23.781Z,17.50
2018-09-23T10:56:18.360Z,17.20
2018-09-23T11:01:12.953Z,17.00
2018-09-23T11:06:07.746Z,16.80
2018-09-23T11:11:02.536Z,16.30
2018-09-23T11:15:57.052Z,15.80
2018-09-23T11:20:51.504Z,15.40
2018-09-23T11:25:45.936Z,15.20
2018-09-23T11:30:40.484Z,15.10
2018-09-23T11:35:35.462Z,14.90
2018-09-23T11:40:29.892Z,15.00
2018-09-23T11:45:24.339Z,14.90
2018-09-23T11:50:19.035Z,14.50
2018-09-23T11:55:13.481Z,14.40
2018-09-23T12:00:08.462Z,14.20
2018-09-23T12:05:02.955Z,14.00
2018-09-23T12:09:57.427Z,13.90
2018-09-23T12:14:51.944Z,14.00
2018-09-23T12:19:46.704Z,13.80
2018-09-23T12:24:41.296Z,13.50
2018-09-23T12:29:36.279Z,13.50
2018-09-23T12:34:30.889Z,13.50
2018-09-23T12:39:25.455Z,13.50
2018-09-23T12:44:20.081Z,13.50
2018-09-23T12:49:14.528Z,13.30
2018-09-23T12:54:08.975Z,13.30
2018-09-23T12:59:03.674Z,13.20
2018-09-23T13:03:58.137Z,13.20
2018-09-23T13:08:52.605Z,12.90
2018-09-23T13:13:47.188Z,12.70
2018-09-23T13:18:41.664Z,12.70
2018-09-23T13:23:36.291Z,12.70
2018-09-23T13:28:30.793Z,12.60
2018-09-23T13:33:25.921Z,12.70
2018-09-23T13:38:20.827Z,12.90
2018-09-23T13:43:15.528Z,13.10
2018-09-23T13:48:10.313Z,13.10
2018-09-23T13:53:05.151Z,13.10
2018-09-23T13:58:00.010Z,13.20
2018-09-23T14:02:54.926Z,13.40
2018-09-23T14:07:49.599Z,13.50
2018-09-23T14:12:44.336Z,13.60
2018-09-23T14:17:39.824Z,13.60
2018-09-23T14:22:34.679Z,13.70
2018-09-23T14:27:30.506Z,13.40
2018-09-23T14:32:25.211Z,13.50
2018-09-23T14:37:19.741Z,13.20
2018-09-23T14:42:14.484Z,12.90
2018-09-23T14:47:09.103Z,12.70
2018-09-23T14:52:03.544Z,12.80
2018-09-23T14:56:58.028Z,12.80
2018-09-23T15:01:52.492Z,12.80
2018-09-23T15:06:47.076Z,12.50
2018-09-23T15:11:41.796Z,12.60
2018-09-23T15:16:36.470Z,12.60
2018-09-23T15:21:30.918Z,12.40
2018-09-23T15:26:26.017Z,12.40
2018-09-23T15:31:20.482Z,12.20
2018-09-23T15:36:14.947Z,12.00
2018-09-23T15:41:09.545Z,11.90
2018-09-23T15:46:04.007Z,11.90
2018-09-23T15:50:58.447Z,12.00
2018-09-23T15:55:52.896Z,12.00
2018-09-23T16:00:47.456Z,11.80
2018-09-23T16:05:42.196Z,11.70
2018-09-23T16:10:36.654Z,11.60
2018-09-23T16:15:31.148Z,11.70
2018-09-23T16:20:26.032Z,11.80
2018-09-23T16:25:20.493Z,11.90
2018-09-23T16:30:15.124Z,11.90
2018-09-23T16:35:10.483Z,11.80
2018-09-23T16:40:05.204Z,11.70
2018-09-23T16:44:59.622Z,11.60
2018-09-23T16:49:54.261Z,11.60
2018-09-23T16:54:49.559Z,11.50
2018-09-23T16:59:45.039Z,11.30
2018-09-23T17:04:39.632Z,11.10
2018-09-23T17:09:34.587Z,10.80
2018-09-23T17:14:30.568Z,10.80
2018-09-23T17:19:26.059Z,10.70
2018-09-23T17:24:20.618Z,10.60
2018-09-23T17:29:15.304Z,10.60
2018-09-23T17:34:10.281Z,10.50
2018-09-23T17:39:08.227Z,10.50
2018-09-23T17:44:03.425Z,10.50
2018-09-23T17:48:59.230Z,10.60
2018-09-23T17:53:54.189Z,10.70
2018-09-23T17:58:49.500Z,10.60
2018-09-23T18:03:44.473Z,10.60
2018-09-23T18:08:39.815Z,10.60
2018-09-23T18:13:34.253Z,10.70
2018-09-23T18:18:29.358Z,10.70
2018-09-23T18:23:23.930Z,10.70
2018-09-23T18:28:18.902Z,10.70
2018-09-23T18:33:13.361Z,10.70
2018-09-23T18:38:08.458Z,10.70
2018-09-23T18:43:03.702Z,10.70
2018-09-23T18:47:59.227Z,10.70
2018-09-23T18:52:59.190Z,10.80
2018-09-23T18:57:53.734Z,10.80
2018-09-23T19:02:48.568Z,10.90
2018-09-23T19:07:43.173Z,10.90
2018-09-23T19:12:37.952Z,10.90
2018-09-23T19:17:32.874Z,11.00
2018-09-23T19:22:32.696Z,11.00
2018-09-23T19:27:27.343Z,11.00
2018-09-23T19:32:22.671Z,11.00
2018-09-23T19:37:18.512Z,10.90
2018-09-23T19:42:14.369Z,10.80
2018-09-23T19:47:09.672Z,10.80
2018-09-23T19:52:04.556Z,10.80
2018-09-23T19:56:59.972Z,10.70
2018-09-23T20:01:54.884Z,10.70
2018-09-23T20:06:49.526Z,10.60
2018-09-23T20:11:44.527Z,10.60
2018-09-23T20:16:39.141Z,10.70
2018-09-23T20:21:33.627Z,10.70
2018-09-23T20:26:28.527Z,10.60
2018-09-23T20:31:23.333Z,10.60
2018-09-23T20:36:17.864Z,10.60
2018-09-23T20:41:12.424Z,10.60
2018-09-23T20:46:07.280Z,10.60
2018-09-23T20:51:04.049Z,10.60
2018-09-23T20:56:02.076Z,10.50
2018-09-23T21:00:57.234Z,10.50
2018-09-23T21:05:51.981Z,10.50
2018-09-23T21:10:47.050Z,10.60
2018-09-23T21:15:41.665Z,10.50
2018-09-23T21:20:36.320Z,10.50
2018-09-23T21:25:31.012Z,10.40
2018-09-23T21:30:25.503Z,10.30
2018-09-23T21:35:20.261Z,10.30
2018-09-23T21:40:14.809Z,10.20
2018-09-23T21:45:09.260Z,10.10
2018-09-23T21:50:03.904Z,10.00
2018-09-23T21:54:58.337Z,10.00
2018-09-23T21:59:52.786Z,9.90
2018-09-23T22:04:47.295Z,9.70
2018-09-23T22:09:41.732Z,9.70
2018-09-23T22:14:36.404Z,9.70
2018-09-23T22:19:30.835Z,9.60
2018-09-23T22:24:25.265Z,9.40
2018-09-23T22:29:20.114Z,9.20
2018-09-23T22:34:14.619Z,9.20
2018-09-23T22:39:09.091Z,9.20
2018-09-23T22:44:03.536Z,9.10
2018-09-23T22:48:58.022Z,9.00
2018-09-23T22:53:52.586Z,8.90
2018-09-23T22:58:47.134Z,8.70
2018-09-23T23:03:42.020Z,8.70
2018-09-23T23:08:36.775Z,8.50
2018-09-23T23:13:31.330Z,8.50
2018-09-23T23:18:26.355Z,8.40
2018-09-23T23:23:20.761Z,8.40
2018-09-23T23:28:15.481Z,8.30
2018-09-23T23:33:10.031Z,8.30
2018-09-23T23:38:04.676Z,8.20
2018-09-23T23:42:59.196Z,8.20
2018-09-23T23:47:53.703Z,8.10
2018-09-23T23:52:48.442Z,8.10
2018-09-23T23:57:43.181Z,8.20
